Time;durP1;ratioP1;P1;durP2;ratioP2;P2;SDS_P1;SDS_P2;PMS_P1;PMS_P2;Temp;Humidity;BMP_temperature;BMP_pressure;BME280_temperature;BME280_humidity;BME280_pressure;Samples;Min_cycle;Max_cycle;Signal;HPM_P1;HPM_P2
2022/11/01 00:00:30;;;;;;;15.10;7.80;;;;;;;12.54;77.77;96923.86;105354;1284;42010;-85
2022/11/01 00:03:22;;;;;;;14.00;7.20;;;;;;;12.56;77.64;96921.92;105076;1289;22480;-86
2022/11/01 00:05:53;;;;;;;13.20;6.80;;;;;;;12.57;77.49;96919.51;105139;1289;24304;-85
2022/11/01 00:08:24;;;;;;;14.80;7.10;;;;;;;12.61;77.36;96921.64;105103;1296;25205;-85
2022/11/01 00:11:03;;;;;;;13.70;7.30;;;;;;;12.63;77.21;96919.27;105016;1305;25460;-85
2022/11/01 00:13:35;;;;;;;15.60;7.20;;;;;;;12.64;76.94;96917.02;105080;1305;22480;-85
2022/11/01 00:16:07;;;;;;;15.20;7.10;;;;;;;12.64;76.78;96917.98;105043;1290;22482;-85
2022/11/01 00:18:38;;;;;;;16.60;7.50;;;;;;;12.69;76.64;96913.04;105068;1305;22504;-85
2022/11/01 00:21:12;;;;;;;15.70;7.30;;;;;;;12.73;76.38;96913.20;105135;1295;38660;-84
2022/11/01 00:23:44;;;;;;;14.80;7.40;;;;;;;12.75;76.13;96911.16;105102;1304;22575;-84
2022/11/01 00:26:19;;;;;;;14.00;7.10;;;;;;;12.76;75.96;96906.31;105142;1305;22454;-84
2022/11/01 00:28:51;;;;;;;15.60;7.20;;;;;;;12.79;75.86;96901.84;105065;1288;23597;-85
2022/11/01 00:31:25;;;;;;;15.70;8.20;;;;;;;12.77;75.66;96899.16;105106;1305;24119;-84
2022/11/01 00:33:56;;;;;;;15.00;7.80;;;;;;;12.78;75.61;96900.15;105104;1295;22583;-85
2022/11/01 00:36:27;;;;;;;15.50;7.50;;;;;;;12.84;75.45;96903.40;105146;1305;22654;-85
2022/11/01 00:38:58;;;;;;;15.00;7.90;;;;;;;12.85;75.29;96899.23;105120;1287;22483;-85
2022/11/01 00:41:29;;;;;;;13.50;6.70;;;;;;;12.87;75.09;96901.07;105058;1296;22497;-85
2022/11/01 00:44:00;;;;;;;11.90;6.60;;;;;;;12.86;74.77;96893.00;105112;1305;22519;-85
2022/11/01 00:46:32;;;;;;;13.70;7.00;;;;;;;12.98;74.65;96891.92;105121;1305;22459;-85
2022/11/01 00:49:03;;;;;;;11.00;6.20;;;;;;;13.03;74.30;96889.25;105069;1296;29106;-85
2022/11/01 00:51:34;;;;;;;12.10;6.50;;;;;;;13.03;73.97;96891.10;105050;1305;22512;-85
2022/11/01 00:54:05;;;;;;;14.00;7.20;;;;;;;13.08;73.86;96887.16;105049;1277;25464;-85
2022/11/01 00:56:36;;;;;;;15.00;7.40;;;;;;;13.12;73.62;96882.80;105029;1305;22596;-85
2022/11/01 00:59:07;;;;;;;14.90;6.80;;;;;;;13.11;73.44;96881.23;104995;1305;28626;-85
2022/11/01 01:01:38;;;;;;;15.80;6.10;;;;;;;13.09;73.23;96883.70;105096;1305;22512;-85
2022/11/01 01:04:09;;;;;;;12.90;6.90;;;;;;;13.06;73.15;96884.04;105124;1305;22482;-85
2022/11/01 01:06:40;;;;;;;12.40;6.90;;;;;;;13.02;73.02;96879.68;105169;1304;22534;-85
2022/11/01 01:09:12;;;;;;;12.50;5.40;;;;;;;12.94;73.00;96879.85;105093;1305;24243;-84
2022/11/01 01:11:43;;;;;;;17.00;7.20;;;;;;;12.93;73.04;96882.30;105103;1305;22479;-85
2022/11/01 01:14:14;;;;;;;18.70;7.10;;;;;;;12.97;72.98;96878.54;105045;1305;22467;-85
2022/11/01 01:16:47;;;;;;;11.90;7.00;;;;;;;12.97;72.90;96875.45;105000;1300;22716;-85
2022/11/01 01:19:18;;;;;;;12.00;5.10;;;;;;;12.99;72.91;96869.61;105242;1305;22554;-85
2022/11/01 01:21:49;;;;;;;10.90;5.80;;;;;;;12.95;72.99;96869.30;105120;1287;22557;-85
2022/11/01 01:24:20;;;;;;;13.40;6.60;;;;;;;12.90;73.07;96867.06;105086;1302;22462;-85
2022/11/01 01:26:52;;;;;;;14.10;6.80;;;;;;;12.90;73.22;96866.75;105140;1297;22461;-85
2022/11/01 01:29:24;;;;;;;10.80;5.20;;;;;;;12.95;73.07;96859.61;105078;1287;22458;-86
2022/11/01 01:31:55;;;;;;;11.60;6.20;;;;;;;12.98;72.94;96852.50;105109;1305;24147;-85
2022/11/01 01:34:26;;;;;;;14.60;5.90;;;;;;;12.99;72.84;96847.70;105175;1304;22472;-85
2022/11/01 01:36:57;;;;;;;14.10;6.00;;;;;;;12.99;72.65;96845.88;105123;1305;22472;-85
2022/11/01 01:39:28;;;;;;;14.60;6.00;;;;;;;13.04;72.40;96836.12;105104;1288;23848;-86
2022/11/01 01:42:00;;;;;;;13.20;6.10;;;;;;;13.06;72.08;96832.52;105065;1290;22467;-86
2022/11/01 01:45:01;;;;;;;12.80;6.60;;;;;;;13.09;71.96;96823.44;105085;1289;22622;-86
2022/11/01 01:47:35;;;;;;;17.00;6.00;;;;;;;13.06;71.72;96826.77;105078;1293;22476;-85
2022/11/01 01:50:11;;;;;;;14.10;5.90;;;;;;;13.03;71.70;96820.33;105060;1305;30733;-86
2022/11/01 01:52:47;;;;;;;16.20;6.10;;;;;;;12.99;71.71;96819.68;105102;1289;22459;-86
2022/11/01 01:55:25;;;;;;;12.60;6.30;;;;;;;12.96;71.68;96816.07;105063;1305;22510;-86
2022/11/01 01:57:57;;;;;;;12.10;5.00;;;;;;;12.95;71.50;96814.96;105079;1306;22480;-86
2022/11/01 02:00:28;;;;;;;11.70;5.10;;;;;;;12.96;71.56;96818.10;105033;1305;22459;-86
2022/11/01 02:03:00;;;;;;;11.20;5.70;;;;;;;12.97;71.32;96811.53;105098;1304;22493;-86
2022/11/01 02:05:38;;;;;;;13.00;5.70;;;;;;;12.99;71.28;96809.09;105045;1296;22467;-85
2022/11/01 02:08:10;;;;;;;12.60;5.00;;;;;;;12.97;71.19;96805.98;105091;1291;22475;-86
2022/11/01 02:10:41;;;;;;;12.80;6.10;;;;;;;12.92;71.17;96803.17;105042;1283;25236;-85
2022/11/01 02:13:17;;;;;;;11.80;5.70;;;;;;;12.87;71.18;96805.33;105144;1305;22603;-85
2022/11/01 02:16:14;;;;;;;12.30;5.80;;;;;;;12.79;71.45;96797.98;105090;1281;25322;-85
2022/11/01 02:18:57;;;;;;;13.30;6.00;;;;;;;12.76;71.72;96795.63;105115;1304;25167;-85
2022/11/01 02:21:56;;;;;;;12.40;5.70;;;;;;;12.78;71.71;96803.47;105143;1290;23616;-85
2022/11/01 02:25:11;;;;;;;8.80;5.10;;;;;;;12.83;71.81;96797.14;105133;1293;22513;-86
2022/11/01 02:28:03;;;;;;;12.40;5.50;;;;;;;12.95;71.31;96805.05;105099;1302;22637;-86
2022/11/01 02:30:44;;;;;;;11.60;5.50;;;;;;;13.03;70.84;96803.02;105031;1304;26458;-86
2022/11/01 02:33:22;;;;;;;;;;;;;;;13.10;70.57;96799.84;105158;1291;22440;-86
2022/11/01 02:36:02;;;;;;;13.40;5.60;;;;;;;13.17;70.27;96798.24;105151;1300;22465;-85
2022/11/01 02:38:38;;;;;;;13.60;5.60;;;;;;;13.17;70.17;96797.92;105406;1303;22501;-86
2022/11/01 02:41:14;;;;;;;14.60;6.70;;;;;;;13.10;70.03;96796.80;105368;1305;35456;-86
2022/11/01 02:43:53;;;;;;;13.40;6.00;;;;;;;13.04;70.14;96797.14;105373;1294;22465;-87
2022/11/01 02:49:17;;;;;;;12.50;5.90;;;;;;;12.74;70.74;96785.45;105103;1306;22917;-86
2022/11/01 02:51:50;;;;;;;14.20;6.00;;;;;;;12.64;71.02;96789.20;105385;1306;25250;-86
2022/11/01 02:54:23;;;;;;;14.90;5.30;;;;;;;12.67;70.99;96789.90;105367;1305;24358;-86
2022/11/01 02:56:55;;;;;;;12.20;6.00;;;;;;;12.79;70.79;96782.83;105097;1302;22523;-86
2022/11/01 02:59:28;;;;;;;10.70;4.80;;;;;;;12.93;70.30;96776.98;105021;1302;25282;-86
2022/11/01 03:02:05;;;;;;;13.30;5.30;;;;;;;12.98;69.90;96767.66;105065;1305;24325;-86
2022/11/01 03:04:37;;;;;;;12.80;6.00;;;;;;;13.01;69.65;96770.58;105040;1291;23440;-86
2022/11/01 03:07:12;;;;;;;11.50;4.40;;;;;;;13.06;69.32;96771.13;104991;1290;22594;-86
2022/11/01 03:09:44;;;;;;;12.20;5.10;;;;;;;13.23;68.80;96773.53;105287;1293;22485;-84
2022/11/01 03:12:27;;;;;;;12.10;4.50;;;;;;;13.36;68.28;96778.11;105003;1288;22557;-86
2022/11/01 03:15:05;;;;;;;11.60;4.80;;;;;;;13.47;67.57;96774.07;105434;1293;23375;-84
2022/11/01 03:17:48;;;;;;;10.60;4.50;;;;;;;13.56;67.03;96779.75;105012;1299;22570;-86
2022/11/01 03:20:26;;;;;;;8.20;4.50;;;;;;;13.59;66.82;96776.13;104980;1305;22468;-85
2022/11/01 03:23:00;;;;;;;12.70;4.80;;;;;;;13.62;66.39;96774.24;105086;1287;22608;-85
2022/11/01 03:25:38;;;;;;;12.10;4.20;;;;;;;13.71;66.17;96773.42;105100;1296;22518;-83
2022/11/01 03:28:15;;;;;;;9.20;3.90;;;;;;;13.76;65.88;96770.98;105122;1301;22678;-85
2022/11/01 03:30:50;;;;;;;11.00;4.50;;;;;;;13.75;65.66;96770.03;105043;1308;24315;-86
2022/11/01 03:33:22;;;;;;;11.60;5.10;;;;;;;13.69;65.55;96770.20;105154;1289;22481;-86
2022/11/01 03:35:57;;;;;;;11.60;4.80;;;;;;;13.64;65.52;96767.67;105127;1309;22474;-86
2022/11/01 03:38:37;;;;;;;12.70;4.90;;;;;;;13.57;65.46;96770.99;105157;1281;22484;-85
2022/11/01 03:41:12;;;;;;;11.50;4.90;;;;;;;13.52;65.41;96774.75;105199;1291;25201;-86
2022/11/01 03:43:43;;;;;;;11.50;5.30;;;;;;;13.50;65.27;96773.13;105151;1293;22511;-86
2022/11/01 03:46:16;;;;;;;8.70;4.20;;;;;;;13.47;65.41;96771.69;105474;1293;22490;-86
2022/11/01 03:48:48;;;;;;;17.10;5.50;;;;;;;13.44;65.30;96772.87;105049;1287;64530;-86
2022/11/01 03:51:19;;;;;;;10.60;4.90;;;;;;;13.39;65.25;96766.45;105222;1287;22504;-86
2022/11/01 03:53:51;;;;;;;15.60;5.30;;;;;;;13.31;65.34;96766.05;105496;1287;22496;-86
2022/11/01 03:56:23;;;;;;;9.60;4.70;;;;;;;13.23;65.37;96765.65;105202;1286;25372;-86
2022/11/01 03:58:54;;;;;;;12.40;5.90;;;;;;;13.16;65.52;96764.45;105076;1287;25310;-86
2022/11/01 04:01:25;;;;;;;12.90;5.20;;;;;;;13.08;65.60;96766.27;105157;1287;25366;-86
2022/11/01 04:03:56;;;;;;;12.70;6.00;;;;;;;13.02;65.81;96760.98;105494;1286;22513;-85
2022/11/01 04:06:27;;;;;;;13.80;5.10;;;;;;;13.01;65.87;96757.92;105186;1282;25446;-86
2022/11/01 04:09:04;;;;;;;12.00;5.50;;;;;;;13.03;65.92;96758.15;105159;1287;29233;-86
2022/11/01 04:11:36;;;;;;;18.80;6.00;;;;;;;13.07;65.81;96758.66;105209;1288;22578;-87
2022/11/01 04:22:33;;;;;;;13.80;4.70;;;;;;;13.05;65.61;96756.41;105389;1286;22508;-86
2022/11/01 04:25:05;;;;;;;11.80;5.30;;;;;;;13.05;65.48;96750.86;105134;1286;22471;-87
2022/11/01 04:27:36;;;;;;;11.30;5.30;;;;;;;13.02;65.47;96753.00;105117;1286;22527;-86
2022/11/01 04:30:10;;;;;;;10.80;5.60;;;;;;;12.99;65.44;96748.01;105171;1286;22621;-86
2022/11/01 04:32:44;;;;;;;12.60;4.20;;;;;;;13.01;65.38;96747.06;105132;1286;25955;-87
2022/11/01 04:35:16;;;;;;;10.10;4.90;;;;;;;13.04;65.32;96743.86;105098;1286;22470;-87
2022/11/01 04:37:50;;;;;;;13.30;5.70;;;;;;;13.00;65.43;96738.19;105102;1287;22635;-86
2022/11/01 04:40:21;;;;;;;11.80;4.40;;;;;;;12.92;65.45;96736.97;105160;1303;24961;-86
2022/11/01 04:42:53;;;;;;;14.40;5.20;;;;;;;12.83;65.59;96733.08;105368;1287;22465;-85
2022/11/01 04:45:25;;;;;;;13.10;5.20;;;;;;;12.76;65.75;96733.37;105416;1286;26117;-86
2022/11/01 04:48:05;;;;;;;12.00;5.20;;;;;;;12.72;65.89;96731.21;105426;1286;22535;-86
2022/11/01 04:50:37;;;;;;;14.30;5.40;;;;;;;12.65;66.00;96730.94;105108;1289;42417;-85
2022/11/01 04:53:09;;;;;;;10.00;4.70;;;;;;;12.59;66.18;96726.30;105136;1279;25246;-86
2022/11/01 04:55:41;;;;;;;10.30;4.50;;;;;;;12.53;66.32;96728.52;105462;1286;24098;-85
2022/11/01 04:58:13;;;;;;;14.70;5.90;;;;;;;12.48;66.52;96728.55;105181;1286;24256;-85
2022/11/01 05:00:49;;;;;;;17.40;4.90;;;;;;;12.46;66.58;96732.05;105079;1286;22474;-85
2022/11/01 05:03:22;;;;;;;11.30;5.20;;;;;;;12.47;66.64;96727.89;105111;1286;22468;-85
2022/11/01 05:05:53;;;;;;;9.90;4.80;;;;;;;12.52;66.63;96730.81;105136;1286;22474;-84
2022/11/01 05:08:25;;;;;;;15.20;5.60;;;;;;;12.57;66.50;96729.67;105089;1293;22560;-85
2022/11/01 05:10:56;;;;;;;10.20;4.30;;;;;;;12.60;66.47;96725.59;105041;1286;32394;-85
2022/11/01 05:13:29;;;;;;;10.10;5.00;;;;;;;12.60;66.56;96726.07;105047;1284;22500;-85
2022/11/01 05:16:02;;;;;;;14.30;5.20;;;;;;;12.60;66.38;96726.27;105408;1282;22463;-85
2022/11/01 05:18:33;;;;;;;12.80;4.70;;;;;;;12.62;66.41;96723.27;105096;1286;23277;-85
2022/11/01 05:21:04;;;;;;;14.30;5.40;;;;;;;12.61;66.34;96724.77;105361;1286;24292;-85
2022/11/01 05:23:38;;;;;;;12.90;5.10;;;;;;;12.61;66.34;96724.45;105391;1286;22471;-86
2022/11/01 05:26:09;;;;;;;11.40;5.00;;;;;;;12.59;66.38;96725.61;105378;1282;22478;-85
2022/11/01 05:28:40;;;;;;;9.70;5.10;;;;;;;12.59;66.48;96728.95;105146;1290;22694;-85
2022/11/01 05:31:12;;;;;;;11.10;4.70;;;;;;;12.58;66.40;96729.98;105372;1289;63154;-85
2022/11/01 05:33:44;;;;;;;16.30;5.10;;;;;;;12.56;66.42;96731.88;105095;1286;22568;-85
2022/11/01 05:36:16;;;;;;;12.60;5.10;;;;;;;12.49;66.46;96737.70;105116;1287;22468;-86
2022/11/01 05:38:47;;;;;;;12.80;4.90;;;;;;;12.46;66.49;96737.69;105050;1283;32102;-84
2022/11/01 05:41:19;;;;;;;9.10;4.40;;;;;;;12.50;66.52;96733.80;105439;1288;22463;-85
2022/11/01 05:43:50;;;;;;;9.70;4.40;;;;;;;12.55;66.42;96736.94;105160;1288;22948;-85
2022/11/01 05:46:21;;;;;;;14.70;4.80;;;;;;;12.56;66.38;96737.30;105489;1288;22507;-85
2022/11/01 05:48:55;;;;;;;9.40;4.50;;;;;;;12.56;66.32;96733.63;105396;1284;24903;-84
2022/11/01 05:51:26;;;;;;;14.40;5.20;;;;;;;12.63;66.34;96733.52;105140;1305;22526;-85
2022/11/01 05:53:57;;;;;;;10.40;4.80;;;;;;;12.69;66.24;96737.17;105109;1290;22471;-86
2022/11/01 05:56:29;;;;;;;12.90;4.30;;;;;;;12.70;66.21;96740.14;105093;1298;26694;-86
2022/11/01 05:59:00;;;;;;;9.40;3.70;;;;;;;12.72;66.16;96743.08;104980;1305;25155;-85
2022/11/01 06:01:31;;;;;;;8.50;4.40;;;;;;;12.82;66.28;96745.48;105023;1305;22588;-85
2022/11/01 06:04:05;;;;;;;12.30;4.70;;;;;;;13.09;66.23;96745.55;105026;1292;22463;-84
2022/11/01 06:06:36;;;;;;;11.70;4.20;;;;;;;13.48;65.91;96740.73;105016;1305;22459;-85
2022/11/01 06:09:07;;;;;;;12.00;4.50;;;;;;;13.90;65.64;96741.77;105251;1300;22678;-85
2022/11/01 06:11:38;;;;;;;11.70;4.60;;;;;;;14.44;65.23;96742.14;104998;1295;22588;-85
2022/11/01 06:14:12;;;;;;;12.30;4.60;;;;;;;15.05;64.56;96739.23;105027;1298;22612;-85
2022/11/01 06:16:44;;;;;;;12.90;4.20;;;;;;;15.66;63.67;96737.73;105060;1288;25301;-85
2022/11/01 06:19:15;;;;;;;11.40;5.10;;;;;;;16.21;63.01;96736.91;105227;1305;22499;-78
2022/11/01 06:21:46;;;;;;;11.50;4.20;;;;;;;16.73;62.14;96738.78;105007;1291;22535;-78
2022/11/01 06:24:17;;;;;;;14.70;5.10;;;;;;;17.18;61.24;96741.55;104979;1291;22462;-79
2022/11/01 06:26:48;;;;;;;9.30;4.60;;;;;;;17.36;60.51;96739.64;104994;1289;23046;-79
2022/11/01 06:29:22;;;;;;;11.10;4.50;;;;;;;17.66;60.11;96736.45;104956;1297;24352;-79
2022/11/01 06:31:53;;;;;;;11.90;4.80;;;;;;;18.18;59.62;96733.29;105016;1305;22471;-79
2022/11/01 06:34:24;;;;;;;9.60;4.30;;;;;;;18.71;58.59;96731.05;105014;1291;22497;-79
2022/11/01 06:36:55;;;;;;;11.90;4.90;;;;;;;18.62;56.29;96732.09;104980;1305;22464;-84
2022/11/01 06:39:29;;;;;;;11.80;4.60;;;;;;;18.45;57.08;96730.95;104933;1296;22638;-83
2022/11/01 06:42:00;;;;;;;11.30;4.70;;;;;;;18.87;56.31;96736.34;104966;1284;22482;-83
2022/11/01 06:44:32;;;;;;;10.40;5.30;;;;;;;18.97;56.18;96735.45;104971;1287;22454;-83
2022/11/01 06:47:03;;;;;;;12.10;5.20;;;;;;;19.28;56.12;96732.64;105097;1289;22508;-83
2022/11/01 06:49:34;;;;;;;11.40;5.10;;;;;;;19.61;55.70;96729.32;105121;1287;24600;-83
2022/11/01 06:52:07;;;;;;;12.60;4.90;;;;;;;20.05;54.96;96732.70;105187;1287;22504;-83
2022/11/01 06:54:41;;;;;;;11.70;4.50;;;;;;;20.11;54.14;96736.90;105176;1289;22474;-83
2022/11/01 06:57:12;;;;;;;11.70;5.30;;;;;;;20.42;54.28;96736.64;105113;1289;22472;-83
2022/11/01 06:59:44;;;;;;;10.40;5.00;;;;;;;20.79;53.86;96737.21;105051;1283;22480;-83
2022/11/01 07:02:15;;;;;;;10.00;5.40;;;;;;;21.13;53.47;96736.20;105125;1291;22494;-83
2022/11/01 07:04:47;;;;;;;8.70;5.00;;;;;;;21.53;52.79;96732.96;105073;1285;22466;-83
2022/11/01 07:07:20;;;;;;;9.20;4.80;;;;;;;21.85;51.04;96735.71;104970;1297;23117;-80
2022/11/01 07:09:52;;;;;;;9.70;4.90;;;;;;;21.44;50.48;96738.88;105149;1289;22574;-82
2022/11/01 07:12:23;;;;;;;9.70;5.60;;;;;;;21.33;50.28;96738.08;104864;1291;210784;-82
2022/11/01 07:14:55;;;;;;;10.10;5.30;;;;;;;21.26;50.31;96739.01;105117;1305;22572;-84
2022/11/01 07:17:26;;;;;;;8.50;4.90;;;;;;;21.76;50.58;96738.42;105101;1305;22480;-86
2022/11/01 07:20:00;;;;;;;9.20;5.10;;;;;;;22.52;50.22;96731.45;104986;1297;22635;-86
2022/11/01 07:22:32;;;;;;;12.00;4.80;;;;;;;23.12;49.40;96733.44;105063;1292;22477;-86
2022/11/01 07:25:04;;;;;;;11.70;4.40;;;;;;;23.66;48.85;96729.97;105115;1294;23299;-86
2022/11/01 07:27:37;;;;;;;11.40;4.90;;;;;;;24.06;47.47;96723.17;105129;1297;22651;-87
2022/11/01 07:30:10;;;;;;;12.50;4.90;;;;;;;24.26;46.87;96718.38;105030;1298;23220;-84
2022/11/01 07:32:42;;;;;;;14.60;4.80;;;;;;;24.36;46.43;96718.23;105190;1297;22500;-84
2022/11/01 07:35:15;;;;;;;10.20;4.80;;;;;;;24.59;46.11;96723.05;105127;1290;22460;-84
2022/11/01 07:37:46;;;;;;;9.30;5.10;;;;;;;25.03;45.76;96719.77;104882;1296;25554;-84
2022/11/01 07:40:18;;;;;;;9.50;4.60;;;;;;;25.58;45.14;96726.91;104997;1303;22488;-84
2022/11/01 07:42:49;;;;;;;13.90;4.90;;;;;;;25.96;42.84;96721.93;105116;1302;22514;-84
2022/11/01 07:45:21;;;;;;;10.80;4.90;;;;;;;25.38;40.44;96722.66;105154;1298;22486;-84
2022/11/01 07:47:53;;;;;;;10.80;5.00;;;;;;;24.34;40.06;96718.65;105048;1300;22485;-83
2022/11/01 07:50:24;;;;;;;10.70;4.70;;;;;;;23.84;42.29;96719.02;105161;1305;22568;-84
2022/11/01 07:53:03;;;;;;;11.50;4.70;;;;;;;23.73;42.26;96727.33;105185;1297;22469;-84
2022/11/01 07:55:35;;;;;;;12.00;4.90;;;;;;;23.30;43.29;96733.80;105152;1284;25263;-84
2022/11/01 07:58:07;;;;;;;9.10;4.90;;;;;;;23.30;43.97;96734.95;105031;1287;22514;-84
2022/11/01 08:00:39;;;;;;;10.10;4.20;;;;;;;23.38;43.87;96728.60;105158;1302;25264;-84
2022/11/01 08:03:13;;;;;;;11.10;5.20;;;;;;;23.31;42.83;96732.57;105155;1305;22960;-84
2022/11/01 08:05:45;;;;;;;11.10;4.60;;;;;;;22.79;42.94;96729.12;105124;1299;22467;-84
2022/11/01 08:08:17;;;;;;;13.90;5.90;;;;;;;22.30;42.74;96724.55;105090;1303;22960;-84
2022/11/01 08:10:48;;;;;;;11.30;5.60;;;;;;;21.72;43.36;96722.98;105101;1305;22573;-84
2022/11/01 08:13:21;;;;;;;11.20;5.90;;;;;;;21.26;44.05;96727.77;105142;1281;22480;-84
2022/11/01 08:15:54;;;;;;;10.90;6.80;;;;;;;20.84;44.77;96726.95;105140;1292;22475;-84
2022/11/01 08:18:25;;;;;;;13.60;5.60;;;;;;;21.12;46.08;96729.13;105023;1289;22519;-84
2022/11/01 08:20:57;;;;;;;13.10;6.40;;;;;;;21.08;46.06;96728.66;105142;1305;22471;-84
2022/11/01 08:23:30;;;;;;;11.60;6.40;;;;;;;20.76;46.01;96725.36;105148;1296;22428;-84
2022/11/01 08:26:05;;;;;;;10.20;5.90;;;;;;;20.11;46.75;96718.37;105144;1281;22944;-84
2022/11/01 08:28:38;;;;;;;11.60;6.00;;;;;;;19.61;47.33;96717.80;105085;1304;22512;-84
2022/11/01 08:31:11;;;;;;;13.30;6.60;;;;;;;19.01;48.49;96714.86;105200;1303;22496;-84
2022/11/01 08:33:44;;;;;;;13.10;6.40;;;;;;;18.56;50.02;96716.95;105180;1284;22541;-84
2022/11/01 08:36:16;;;;;;;13.20;6.30;;;;;;;18.81;50.84;96715.70;105158;1304;22464;-84
2022/11/01 08:38:48;;;;;;;12.20;6.20;;;;;;;19.03;50.98;96714.33;105105;1304;25234;-84
2022/11/01 08:41:22;;;;;;;11.40;6.50;;;;;;;19.15;51.10;96715.05;105137;1300;22498;-84
2022/11/01 08:43:53;;;;;;;13.80;7.40;;;;;;;19.28;51.15;96720.88;105160;1304;22622;-84
2022/11/01 08:46:25;;;;;;;14.40;6.80;;;;;;;19.22;51.37;96725.59;105156;1285;22475;-85
2022/11/01 08:48:59;;;;;;;14.70;6.90;;;;;;;19.23;51.34;96723.64;105104;1289;24255;-81
2022/11/01 08:51:33;;;;;;;10.70;8.10;;;;;;;18.73;51.72;96724.15;104979;1286;25394;-82
2022/11/01 08:54:06;;;;;;;15.50;9.20;;;;;;;18.42;52.61;96731.55;105089;1293;22462;-84
2022/11/01 08:56:37;;;;;;;13.30;9.40;;;;;;;18.09;53.14;96733.93;105157;1304;22596;-84
2022/11/01 08:59:10;;;;;;;15.90;11.20;;;;;;;17.40;54.50;96733.08;105103;1297;24166;-83
2022/11/01 09:01:41;;;;;;;13.90;11.20;;;;;;;16.98;55.47;96731.83;105130;1294;22474;-85
2022/11/01 09:04:13;;;;;;;15.40;11.40;;;;;;;16.70;56.03;96732.14;105495;1293;22488;-84
2022/11/01 09:06:44;;;;;;;17.50;11.60;;;;;;;16.79;56.62;96732.93;105163;1287;22475;-85
2022/11/01 09:09:16;;;;;;;20.90;13.10;;;;;;;16.93;56.45;96733.98;105097;1284;25271;-84
2022/11/01 09:11:47;;;;;;;18.80;13.80;;;;;;;16.91;56.54;96733.67;105075;1289;22469;-84
2022/11/01 09:14:22;;;;;;;20.20;16.20;;;;;;;16.87;56.92;96731.71;105059;1298;25348;-86
2022/11/01 09:16:54;;;;;;;20.10;16.90;;;;;;;16.61;57.64;96732.08;105048;1290;22691;-87
2022/11/01 09:19:25;;;;;;;21.10;18.00;;;;;;;16.35;58.37;96732.39;104945;1280;24325;-86
2022/11/01 09:21:57;;;;;;;21.00;18.30;;;;;;;16.08;59.08;96729.77;105072;1293;22481;-85
2022/11/01 09:24:28;;;;;;;21.70;19.40;;;;;;;15.91;59.86;96727.09;105040;1304;24547;-85
2022/11/01 09:27:02;;;;;;;22.50;19.80;;;;;;;15.82;60.39;96733.39;105071;1293;22548;-83
2022/11/01 09:29:34;;;;;;;22.50;19.20;;;;;;;15.59;61.00;96736.41;105106;1290;27314;-83
2022/11/01 09:32:07;;;;;;;25.00;21.00;;;;;;;15.09;62.13;96738.77;105144;1290;25295;-83
2022/11/01 09:34:38;;;;;;;24.60;20.60;;;;;;;14.78;63.28;96737.02;105091;1286;22483;-83
2022/11/01 09:37:10;;;;;;;25.10;22.40;;;;;;;14.67;64.25;96739.90;105131;1296;22511;-83
2022/11/01 09:39:42;;;;;;;26.30;23.50;;;;;;;14.56;64.93;96749.22;105085;1290;22574;-82
2022/11/01 09:42:21;;;;;;;26.80;22.40;;;;;;;14.42;65.49;96748.38;105107;1289;23652;-82
2022/11/01 09:44:55;;;;;;;26.00;21.90;;;;;;;14.24;66.15;96751.89;105142;1304;26550;-83
2022/11/01 09:47:29;;;;;;;26.90;24.10;;;;;;;14.34;66.48;96751.83;105103;1281;22485;-83
2022/11/01 09:50:07;;;;;;;27.00;24.00;;;;;;;14.41;66.65;96752.91;104983;1286;22473;-83
2022/11/01 09:52:40;;;;;;;27.00;24.10;;;;;;;14.72;66.63;96751.95;106958;1283;24727;-82
2022/11/01 09:55:17;;;;;;;26.80;23.10;;;;;;;14.94;66.20;96750.02;105179;1288;22477;-83
2022/11/01 09:57:57;;;;;;;29.20;25.50;;;;;;;14.93;66.10;96747.59;104895;1297;27209;-83
2022/11/01 10:00:35;;;;;;;28.10;23.20;;;;;;;14.82;66.42;96746.60;105096;1288;21673;-84
2022/11/01 10:03:35;;;;;;;27.50;23.40;;;;;;;14.70;66.89;96750.56;105146;1281;22473;-84
2022/11/01 10:06:14;;;;;;;26.90;24.10;;;;;;;14.64;67.19;96751.48;105160;1289;22587;-83
2022/11/01 10:09:07;;;;;;;24.20;21.20;;;;;;;14.67;67.16;96753.73;105107;1288;22534;-82
2022/11/01 10:11:56;;;;;;;25.40;21.20;;;;;;;14.49;67.22;96764.09;105092;1288;22480;-82
2022/11/01 10:14:54;;;;;;;24.20;21.60;;;;;;;14.16;67.91;96759.98;105155;1293;24298;-82
2022/11/01 10:17:36;;;;;;;26.70;22.90;;;;;;;14.12;68.16;96762.67;104964;1281;22507;-83
2022/11/01 10:20:13;;;;;;;23.40;20.50;;;;;;;14.22;68.75;96758.96;105001;1290;36473;-83
2022/11/01 10:22:48;;;;;;;25.20;21.70;;;;;;;14.07;68.95;96758.29;105366;1296;24452;-83
2022/11/01 10:25:24;;;;;;;25.30;20.90;;;;;;;13.93;69.07;96758.71;104949;1289;22598;-83
2022/11/01 10:28:07;;;;;;;29.00;23.80;;;;;;;14.01;69.15;96764.33;104875;1303;22749;-82
2022/11/01 10:30:45;;;;;;;23.60;21.10;;;;;;;13.92;68.98;96761.28;104979;1277;24064;-83
2022/11/01 10:33:31;;;;;;;25.00;22.10;;;;;;;14.28;69.21;96761.30;104937;1304;25278;-83
2022/11/01 10:36:06;;;;;;;25.30;22.30;;;;;;;14.36;68.92;96765.05;105007;1291;22486;-83
2022/11/01 10:38:43;;;;;;;23.80;21.10;;;;;;;14.42;68.69;96763.64;104991;1298;31901;-83
2022/11/01 10:41:24;;;;;;;27.20;23.20;;;;;;;14.11;69.38;96760.93;105068;1304;23151;-83
2022/11/01 10:43:58;;;;;;;24.50;21.90;;;;;;;14.09;70.06;96760.76;105139;1280;22519;-83
2022/11/01 10:46:37;;;;;;;25.00;22.10;;;;;;;14.20;69.60;96770.14;105086;1300;22501;-83
2022/11/01 10:49:20;;;;;;;24.00;19.80;;;;;;;14.10;69.64;96780.16;105036;1296;26693;-83
2022/11/01 10:51:55;;;;;;;23.90;21.20;;;;;;;14.05;69.91;96781.30;105149;1281;22464;-83
2022/11/01 10:54:30;;;;;;;23.60;21.10;;;;;;;13.94;70.24;96781.00;105147;1304;22469;-83
2022/11/01 10:57:06;;;;;;;28.10;23.20;;;;;;;13.74;70.97;96781.67;105139;1304;24310;-82
2022/11/01 10:59:43;;;;;;;25.10;22.40;;;;;;;13.40;71.66;96786.40;105051;1296;22552;-83
2022/11/01 11:02:22;;;;;;;24.50;21.90;;;;;;;13.45;71.98;96787.48;105094;1304;22471;-82
2022/11/01 11:04:55;;;;;;;25.30;22.10;;;;;;;13.79;72.22;96786.91;105103;1281;26027;-82
2022/11/01 11:07:29;;;;;;;27.30;22.30;;;;;;;14.02;71.71;96785.85;105114;1304;22495;-82
2022/11/01 11:10:02;;;;;;;25.80;22.70;;;;;;;14.12;71.24;96784.64;105056;1281;25362;-82
2022/11/01 11:12:33;;;;;;;25.90;22.20;;;;;;;14.06;70.98;96786.84;105081;1304;24684;-82
2022/11/01 11:15:16;;;;;;;27.10;23.90;;;;;;;13.95;71.20;96784.55;105147;1302;22499;-82
2022/11/01 11:17:52;;;;;;;27.60;21.60;;;;;;;13.81;71.76;96780.58;105095;1302;22491;-81
2022/11/01 11:20:29;;;;;;;26.80;23.50;;;;;;;14.05;71.75;96780.50;105171;1287;22491;-82
2022/11/01 11:23:03;;;;;;;24.10;21.60;;;;;;;14.05;71.41;96779.61;105149;1302;22481;-82
2022/11/01 11:25:37;;;;;;;27.10;24.20;;;;;;;14.03;71.43;96784.39;105129;1273;22471;-82
2022/11/01 11:28:22;;;;;;;25.60;22.40;;;;;;;13.89;71.72;96782.41;105116;1303;25357;-82
2022/11/01 11:30:53;;;;;;;25.80;23.10;;;;;;;13.67;72.36;96781.73;105165;1302;23555;-82
2022/11/01 11:33:25;;;;;;;25.60;22.80;;;;;;;13.63;72.67;96786.55;105184;1274;22522;-82
2022/11/01 11:35:58;;;;;;;26.80;23.10;;;;;;;13.80;72.96;96785.61;105122;1296;22488;-82
2022/11/01 11:38:47;;;;;;;25.50;22.70;;;;;;;14.15;72.99;96784.16;105123;1280;22681;-82
2022/11/01 11:41:30;;;;;;;23.10;20.10;;;;;;;14.40;72.29;96780.14;105176;1290;22462;-82
2022/11/01 11:44:01;;;;;;;24.80;22.10;;;;;;;14.39;71.76;96778.12;105116;1288;26467;-82
2022/11/01 11:46:33;;;;;;;25.30;22.30;;;;;;;14.38;71.67;96779.44;105156;1286;25216;-82
2022/11/01 11:49:05;;;;;;;25.70;22.60;;;;;;;14.31;71.39;96779.41;105115;1296;24322;-82
2022/11/01 11:51:38;;;;;;;24.50;21.90;;;;;;;14.18;71.54;96776.83;105141;1302;22511;-81
2022/11/01 11:54:25;;;;;;;26.80;23.00;;;;;;;14.24;71.47;96774.54;105108;1303;22461;-82
2022/11/01 11:57:11;;;;;;;26.80;22.90;;;;;;;14.29;71.89;96774.02;105178;1280;24286;-82
2022/11/01 11:59:43;;;;;;;25.00;21.50;;;;;;;14.57;71.82;96772.98;105056;1303;27247;-82